Umbuzeiro, Brazil
Current Conditions -  °F | °C
As of 2:00 PM on Saturday 25 Oct 2014 (Local Time) from SBKG Reporting Station
Scattered Clouds Scattered Clouds  
Wind Chill: 86°   Ceiling: Unl
Heat Index: 86°   Visibility: 6mi
Dew Point: 55°   Wind: 16mph
Humidity: 35%   Direction: 130°SE
Pressure: 29.94"   Gusts: NA
Location:  7.7°S, 35.66°W
Report Text: SBKG 251700Z 13014KT 9999 SCT040 30/13 Q1014
Loading
Personal Weather Stations






























Interactive Weather Map
Tropical Storm Tracking
New forecast layout! Learn more

10-Day Weather Forecast

Advertisements
Track Severe Weather on mobile